Monarch, Montana
Current Conditions -  °F | °C
As of 11:56 AM on Thursday 30 Oct 2014 (Local Time) from KGFA Reporting Station
Clear Clear  
Wind Chill: 54°   Ceiling: Unl
Heat Index: 54°   Visibility: 10mi
Dew Point: 33°   Wind: 9mph
Humidity: 44%   Direction: 110°ESE
Pressure: 30.26"   Gusts: NA
Location:  47.1°N, 110.83°W
Report Text: KGFA 301756Z AUTO 11008KT 10SM CLR 12/00 A3026 RMK AO2 SLP267 T01230003 10123 21017 58003
Loading
Personal Weather Stations






























Interactive Weather Map New forecast layout! Learn more

10-Day Weather Forecast

Advertisements
Track Severe Weather on mobile